Terminal Aerodrome Forecast
Issued by NWS

Home | Current Version | Previous Version | Text Only | Print | Product List | Glossary On
Versions: 1 2 3 4 5 6 7 8 9 10 11 12 13 14
000
FTAK31 PAJN 270500
TAFAGY
TAF
PAGY 270538Z 2706/2806 20012G18KT P6SM VCSH SCT030 BKN050 OVC080
     FM270800 21010KT P6SM -SHRA BKN030 OVC050
     FM271800 21012KT 6SM -SHRA BKN030 OVC050
     FM280000 21015KT P6SM VCSH BKN040 OVC060
      AMD LTD TO CLD VIS AND WIND=

USA.gov is the U.S. government's official web portal to all federal, state and local government web resources and services.